sensor_id;sensor_type;location;lat;lon;timestamp;pressure;altitude;pressure_sealevel;temperature;humidity
13068;BME280;6600;51.362;6.686;2023-01-31T00:00:19;102037.34;;;5.44;100.00
13068;BME280;6600;51.362;6.686;2023-01-31T00:02:44;102046.44;;;5.42;100.00
13068;BME280;6600;51.362;6.686;2023-01-31T00:05:09;102050.03;;;5.50;100.00
13068;BME280;6600;51.362;6.686;2023-01-31T00:07:35;102045.88;;;5.48;100.00
13068;BME280;6600;51.362;6.686;2023-01-31T00:10:00;102047.88;;;5.36;100.00
13068;BME280;6600;51.362;6.686;2023-01-31T00:12:25;102045.59;;;5.41;100.00
13068;BME280;6600;51.362;6.686;2023-01-31T00:14:51;102041.66;;;5.45;100.00
13068;BME280;6600;51.362;6.686;2023-01-31T00:17:16;102042.91;;;5.51;100.00
13068;BME280;6600;51.362;6.686;2023-01-31T00:19:41;102039.41;;;5.50;100.00
13068;BME280;6600;51.362;6.686;2023-01-31T00:22:07;102040.25;;;5.51;100.00
13068;BME280;6600;51.362;6.686;2023-01-31T00:24:32;102036.66;;;5.42;100.00
13068;BME280;6600;51.362;6.686;2023-01-31T00:26:57;102048.34;;;5.49;100.00
13068;BME280;6600;51.362;6.686;2023-01-31T00:29:23;102048.97;;;5.43;100.00
13068;BME280;6600;51.362;6.686;2023-01-31T00:31:48;102046.59;;;5.40;100.00
13068;BME280;6600;51.362;6.686;2023-01-31T00:34:14;102053.25;;;5.27;100.00
13068;BME280;6600;51.362;6.686;2023-01-31T00:36:39;102049.66;;;5.18;100.00
13068;BME280;6600;51.362;6.686;2023-01-31T00:39:06;102047.72;;;5.20;100.00
13068;BME280;6600;51.362;6.686;2023-01-31T00:41:33;102050.50;;;5.19;100.00
13068;BME280;6600;51.362;6.686;2023-01-31T00:43:59;102055.28;;;5.15;100.00
13068;BME280;6600;51.362;6.686;2023-01-31T00:46:25;102057.38;;;5.12;100.00
13068;BME280;6600;51.362;6.686;2023-01-31T00:48:51;102052.25;;;5.00;100.00
13068;BME280;6600;51.362;6.686;2023-01-31T00:51:18;102056.06;;;4.98;100.00
13068;BME280;6600;51.362;6.686;2023-01-31T00:53:44;102058.59;;;4.90;100.00
13068;BME280;6600;51.362;6.686;2023-01-31T00:56:15;102060.28;;;4.91;100.00
13068;BME280;6600;51.362;6.686;2023-01-31T00:58:40;102065.22;;;4.86;100.00
13068;BME280;6600;51.362;6.686;2023-01-31T01:01:07;102053.50;;;4.79;100.00
13068;BME280;6600;51.362;6.686;2023-01-31T01:03:33;102051.88;;;4.95;100.00
13068;BME280;6600;51.362;6.686;2023-01-31T01:05:58;102054.28;;;4.89;100.00
13068;BME280;6600;51.362;6.686;2023-01-31T01:08:24;102068.97;;;4.93;100.00
13068;BME280;6600;51.362;6.686;2023-01-31T01:10:49;102064.31;;;4.95;100.00
13068;BME280;6600;51.362;6.686;2023-01-31T01:13:14;102056.78;;;4.90;100.00
13068;BME280;6600;51.362;6.686;2023-01-31T01:15:40;102061.25;;;4.90;100.00
13068;BME280;6600;51.362;6.686;2023-01-31T01:18:05;102059.31;;;4.92;100.00
13068;BME280;6600;51.362;6.686;2023-01-31T01:20:33;102060.69;;;4.96;100.00
13068;BME280;6600;51.362;6.686;2023-01-31T01:22:58;102061.25;;;4.90;100.00
13068;BME280;6600;51.362;6.686;2023-01-31T01:25:24;102060.28;;;4.91;100.00
13068;BME280;6600;51.362;6.686;2023-01-31T01:27:49;102056.22;;;4.87;100.00
13068;BME280;6600;51.362;6.686;2023-01-31T01:30:15;102060.56;;;4.88;100.00
13068;BME280;6600;51.362;6.686;2023-01-31T01:32:40;102060.28;;;4.91;100.00
13068;BME280;6600;51.362;6.686;2023-01-31T01:35:06;102060.16;;;4.83;100.00
13068;BME280;6600;51.362;6.686;2023-01-31T01:37:32;102044.78;;;4.86;100.00
13068;BME280;6600;51.362;6.686;2023-01-31T01:39:57;102040.31;;;4.87;100.00
13068;BME280;6600;51.362;6.686;2023-01-31T01:42:24;102036.91;;;4.94;100.00
13068;BME280;6600;51.362;6.686;2023-01-31T01:45:01;102032.75;;;4.92;100.00
13068;BME280;6600;51.362;6.686;2023-01-31T01:47:41;102028.81;;;4.96;100.00
13068;BME280;6600;51.362;6.686;2023-01-31T01:50:14;102029.69;;;4.87;100.00
13068;BME280;6600;51.362;6.686;2023-01-31T01:53:05;102031.41;;;4.78;100.00
13068;BME280;6600;51.362;6.686;2023-01-31T01:55:35;102033.75;;;4.81;100.00
13068;BME280;6600;51.362;6.686;2023-01-31T01:58:11;102033.09;;;4.70;100.00
13068;BME280;6600;51.362;6.686;2023-01-31T02:00:38;102042.06;;;4.59;100.00
13068;BME280;6600;51.362;6.686;2023-01-31T02:03:05;102040.41;;;4.58;100.00
13068;BME280;6600;51.362;6.686;2023-01-31T02:05:43;102035.66;;;4.52;100.00
13068;BME280;6600;51.362;6.686;2023-01-31T02:08:11;102037.63;;;4.50;100.00
13068;BME280;6600;51.362;6.686;2023-01-31T02:13:26;102038.78;;;4.28;100.00
13068;BME280;6600;51.362;6.686;2023-01-31T02:15:52;102034.88;;;4.32;100.00
13068;BME280;6600;51.362;6.686;2023-01-31T02:18:19;102038.66;;;4.39;100.00
13068;BME280;6600;51.362;6.686;2023-01-31T02:21:29;102040.03;;;4.43;100.00
13068;BME280;6600;51.362;6.686;2023-01-31T02:41:14;102053.31;;;4.43;100.00
13068;BME280;6600;51.362;6.686;2023-01-31T02:43:56;102055.53;;;4.38;100.00
13068;BME280;6600;51.362;6.686;2023-01-31T02:50:00;102052.19;;;4.36;100.00
13068;BME280;6600;51.362;6.686;2023-01-31T02:52:58;102049.00;;;4.33;100.00
13068;BME280;6600;51.362;6.686;2023-01-31T02:58:12;102045.50;;;4.32;100.00
13068;BME280;6600;51.362;6.686;2023-01-31T03:00:40;102040.75;;;4.26;100.00
13068;BME280;6600;51.362;6.686;2023-01-31T03:03:12;102029.03;;;4.29;100.00
13068;BME280;6600;51.362;6.686;2023-01-31T03:05:42;102035.03;;;4.21;100.00
13068;BME280;6600;51.362;6.686;2023-01-31T03:08:10;102036.03;;;4.20;100.00
13068;BME280;6600;51.362;6.686;2023-01-31T03:10:58;102024.56;;;4.29;100.00
13068;BME280;6600;51.362;6.686;2023-01-31T03:19:08;102016.72;;;4.28;100.00
13068;BME280;6600;51.362;6.686;2023-01-31T03:22:11;102023.97;;;4.35;100.00
13068;BME280;6600;51.362;6.686;2023-01-31T03:24:42;102023.16;;;4.25;100.00
13068;BME280;6600;51.362;6.686;2023-01-31T03:27:08;102011.88;;;4.23;100.00
13068;BME280;6600;51.362;6.686;2023-01-31T03:29:35;102018.16;;;4.22;100.00
13068;BME280;6600;51.362;6.686;2023-01-31T03:32:29;102010.63;;;4.27;100.00
13068;BME280;6600;51.362;6.686;2023-01-31T03:34:57;102001.69;;;4.09;100.00
13068;BME280;6600;51.362;6.686;2023-01-31T03:37:54;102004.66;;;4.06;100.00
13068;BME280;6600;51.362;6.686;2023-01-31T03:40:25;102008.13;;;3.97;100.00
13068;BME280;6600;51.362;6.686;2023-01-31T03:42:57;102004.22;;;4.01;100.00
13068;BME280;6600;51.362;6.686;2023-01-31T03:45:50;102001.16;;;3.96;100.00
13068;BME280;6600;51.362;6.686;2023-01-31T03:48:18;102004.09;;;3.83;100.00
13068;BME280;6600;51.362;6.686;2023-01-31T03:50:51;101995.56;;;3.80;100.00
13068;BME280;6600;51.362;6.686;2023-01-31T03:56:20;101984.41;;;3.95;100.00
13068;BME280;6600;51.362;6.686;2023-01-31T03:58:53;101981.31;;;4.00;100.00
13068;BME280;6600;51.362;6.686;2023-01-31T04:01:22;101983.84;;;4.01;100.00
13068;BME280;6600;51.362;6.686;2023-01-31T04:03:57;101978.81;;;4.08;100.00
13068;BME280;6600;51.362;6.686;2023-01-31T04:06:26;101974.34;;;4.08;100.00
13068;BME280;6600;51.362;6.686;2023-01-31T04:08:51;101977.97;;;4.17;100.00
13068;BME280;6600;51.362;6.686;2023-01-31T04:11:19;101963.66;;;4.28;100.00
13068;BME280;6600;51.362;6.686;2023-01-31T04:13:45;101959.19;;;4.28;100.00
13068;BME280;6600;51.362;6.686;2023-01-31T04:16:10;101960.22;;;4.27;100.00
13068;BME280;6600;51.362;6.686;2023-01-31T04:18:36;101960.47;;;4.34;100.00
13068;BME280;6600;51.362;6.686;2023-01-31T04:21:01;101960.25;;;4.45;100.00
13068;BME280;6600;51.362;6.686;2023-01-31T04:23:26;101953.25;;;4.53;100.00
13068;BME280;6600;51.362;6.686;2023-01-31T04:25:53;101965.25;;;4.57;100.00
13068;BME280;6600;51.362;6.686;2023-01-31T04:28:19;101955.63;;;4.56;100.00
13068;BME280;6600;51.362;6.686;2023-01-31T04:30:44;101958.50;;;4.63;100.00
13068;BME280;6600;51.362;6.686;2023-01-31T04:33:10;101966.88;;;4.68;100.00
13068;BME280;6600;51.362;6.686;2023-01-31T04:35:38;101966.03;;;4.68;100.00
13068;BME280;6600;51.362;6.686;2023-01-31T04:38:03;101974.97;;;4.67;100.00
13068;BME280;6600;51.362;6.686;2023-01-31T04:40:29;101979.69;;;4.73;100.00
13068;BME280;6600;51.362;6.686;2023-01-31T04:42:54;101968.00;;;4.66;100.00
13068;BME280;6600;51.362;6.686;2023-01-31T04:45:19;101966.91;;;4.58;100.00
13068;BME280;6600;51.362;6.686;2023-01-31T04:47:45;101969.69;;;4.67;100.00
13068;BME280;6600;51.362;6.686;2023-01-31T04:50:10;101969.78;;;4.75;100.00
13068;BME280;6600;51.362;6.686;2023-01-31T04:52:35;101969.38;;;4.70;100.00
13068;BME280;6600;51.362;6.686;2023-01-31T04:55:01;101968.28;;;4.72;100.00
13068;BME280;6600;51.362;6.686;2023-01-31T04:57:26;101963.50;;;4.76;100.00
13068;BME280;6600;51.362;6.686;2023-01-31T04:59:51;101959.72;;;4.78;100.00
13068;BME280;6600;51.362;6.686;2023-01-31T05:02:17;101956.22;;;4.78;100.00
13068;BME280;6600;51.362;6.686;2023-01-31T05:04:42;101951.03;;;4.76;100.00
13068;BME280;6600;51.362;6.686;2023-01-31T05:07:08;101950.56;;;4.63;100.00
13068;BME280;6600;51.362;6.686;2023-01-31T05:09:33;101946.50;;;4.69;100.00
13068;BME280;6600;51.362;6.686;2023-01-31T05:11:59;101952.03;;;4.75;100.00
13068;BME280;6600;51.362;6.686;2023-01-31T05:14:24;101951.59;;;4.80;100.00
13068;BME280;6600;51.362;6.686;2023-01-31T05:16:49;101944.50;;;4.71;100.00
13068;BME280;6600;51.362;6.686;2023-01-31T05:19:16;101946.88;;;4.74;100.00
13068;BME280;6600;51.362;6.686;2023-01-31T05:21:41;101944.22;;;4.74;100.00
13068;BME280;6600;51.362;6.686;2023-01-31T05:24:24;101948.38;;;4.76;100.00
13068;BME280;6600;51.362;6.686;2023-01-31T05:26:49;101945.16;;;4.82;100.00
13068;BME280;6600;51.362;6.686;2023-01-31T05:29:17;101943.03;;;4.86;100.00
13068;BME280;6600;51.362;6.686;2023-01-31T05:31:43;101944.78;;;4.95;100.00
13068;BME280;6600;51.362;6.686;2023-01-31T05:34:08;101933.50;;;4.93;100.00
13068;BME280;6600;51.362;6.686;2023-01-31T05:36:36;101929.22;;;5.00;100.00
13068;BME280;6600;51.362;6.686;2023-01-31T05:39:01;101926.22;;;4.95;100.00
13068;BME280;6600;51.362;6.686;2023-01-31T05:41:26;101929.22;;;5.00;100.00
13068;BME280;6600;51.362;6.686;2023-01-31T05:43:51;101924.81;;;4.91;100.00
13068;BME280;6600;51.362;6.686;2023-01-31T05:46:17;101922.88;;;4.93;100.00
13068;BME280;6600;51.362;6.686;2023-01-31T05:48:42;101909.28;;;4.96;100.00
13068;BME280;6600;51.362;6.686;2023-01-31T05:51:07;101909.97;;;4.98;100.00
13068;BME280;6600;51.362;6.686;2023-01-31T05:53:33;101906.03;;;5.02;100.00
13068;BME280;6600;51.362;6.686;2023-01-31T05:55:58;101893.72;;;5.01;100.00
13068;BME280;6600;51.362;6.686;2023-01-31T05:58:23;101894.03;;;4.98;100.00
13068;BME280;6600;51.362;6.686;2023-01-31T06:00:49;101888.28;;;5.02;100.00
13068;BME280;6600;51.362;6.686;2023-01-31T06:03:14;101889.19;;;5.11;100.00
13068;BME280;6600;51.362;6.686;2023-01-31T06:05:52;101881.00;;;5.22;100.00
13068;BME280;6600;51.362;6.686;2023-01-31T06:08:17;101882.19;;;5.28;100.00
13068;BME280;6600;51.362;6.686;2023-01-31T06:10:43;101874.22;;;5.28;100.00
13068;BME280;6600;51.362;6.686;2023-01-31T06:13:08;101891.38;;;5.33;100.00
13068;BME280;6600;51.362;6.686;2023-01-31T06:16:05;101889.47;;;5.43;100.00
13068;BME280;6600;51.362;6.686;2023-01-31T06:18:31;101888.94;;;5.40;100.00
13068;BME280;6600;51.362;6.686;2023-01-31T06:20:56;101897.69;;;5.32;100.00
13068;BME280;6600;51.362;6.686;2023-01-31T06:23:22;101907.91;;;5.45;100.00
13068;BME280;6600;51.362;6.686;2023-01-31T06:25:49;101907.09;;;5.44;100.00
13068;BME280;6600;51.362;6.686;2023-01-31T06:28:14;101903.97;;;5.31;100.00
13068;BME280;6600;51.362;6.686;2023-01-31T06:30:39;101912.34;;;5.36;100.00
13068;BME280;6600;51.362;6.686;2023-01-31T06:33:05;101913.00;;;5.38;100.00
13068;BME280;6600;51.362;6.686;2023-01-31T06:35:30;101911.94;;;5.31;100.00
13068;BME280;6600;51.362;6.686;2023-01-31T06:37:57;101907.66;;;5.30;100.00
13068;BME280;6600;51.362;6.686;2023-01-31T06:40:23;101901.03;;;5.34;100.00
13068;BME280;6600;51.362;6.686;2023-01-31T06:42:48;101901.63;;;5.28;100.00
13068;BME280;6600;51.362;6.686;2023-01-31T06:45:13;101892.38;;;5.32;100.00
13068;BME280;6600;51.362;6.686;2023-01-31T06:47:39;101905.81;;;5.31;100.00
13068;BME280;6600;51.362;6.686;2023-01-31T06:50:05;101895.34;;;5.29;100.00
13068;BME280;6600;51.362;6.686;2023-01-31T06:52:30;101899.72;;;5.38;100.00
13068;BME280;6600;51.362;6.686;2023-01-31T06:54:55;101902.47;;;5.46;100.00
13068;BME280;6600;51.362;6.686;2023-01-31T06:57:21;101902.00;;;5.51;100.00
13068;BME280;6600;51.362;6.686;2023-01-31T06:59:46;101921.81;;;5.56;100.00
13068;BME280;6600;51.362;6.686;2023-01-31T07:02:11;101924.88;;;5.62;100.00
13068;BME280;6600;51.362;6.686;2023-01-31T07:04:36;101919.81;;;5.58;100.00
13068;BME280;6600;51.362;6.686;2023-01-31T07:07:02;101909.19;;;5.58;100.00
13068;BME280;6600;51.362;6.686;2023-01-31T07:09:28;101906.91;;;5.64;100.00
13068;BME280;6600;51.362;6.686;2023-01-31T07:11:53;101902.31;;;5.48;100.00
13068;BME280;6600;51.362;6.686;2023-01-31T07:14:18;101905.25;;;5.63;100.00
13068;BME280;6600;51.362;6.686;2023-01-31T07:16:44;101911.09;;;5.66;100.00
13068;BME280;6600;51.362;6.686;2023-01-31T07:19:09;101895.22;;;5.56;100.00
13068;BME280;6600;51.362;6.686;2023-01-31T07:21:35;101882.13;;;5.55;100.00
13068;BME280;6600;51.362;6.686;2023-01-31T07:24:01;101883.31;;;5.60;100.00
13068;BME280;6600;51.362;6.686;2023-01-31T07:26:27;101894.59;;;5.63;100.00
13068;BME280;6600;51.362;6.686;2023-01-31T07:28:52;101884.97;;;5.62;100.00
13068;BME280;6600;51.362;6.686;2023-01-31T07:31:18;101898.56;;;5.58;100.00
13068;BME280;6600;51.362;6.686;2023-01-31T07:33:43;101901.91;;;5.60;100.00
13068;BME280;6600;51.362;6.686;2023-01-31T07:36:12;101897.97;;;5.65;100.00
13068;BME280;6600;51.362;6.686;2023-01-31T07:38:38;101894.59;;;5.63;100.00
13068;BME280;6600;51.362;6.686;2023-01-31T07:41:04;101884.59;;;5.56;100.00
13068;BME280;6600;51.362;6.686;2023-01-31T07:43:30;101887.13;;;5.58;100.00
13068;BME280;6600;51.362;6.686;2023-01-31T07:45:57;101872.28;;;5.55;100.00
13068;BME280;6600;51.362;6.686;2023-01-31T07:48:22;101887.09;;;5.76;100.00
13068;BME280;6600;51.362;6.686;2023-01-31T07:50:58;101875.44;;;5.77;100.00
13068;BME280;6600;51.362;6.686;2023-01-31T07:53:27;101876.06;;;5.71;100.00
13068;BME280;6600;51.362;6.686;2023-01-31T07:55:52;101874.38;;;5.70;100.00
13068;BME280;6600;51.362;6.686;2023-01-31T07:58:18;101871.91;;;5.68;100.00
13068;BME280;6600;51.362;6.686;2023-01-31T08:00:43;101875.09;;;5.72;100.00
13068;BME280;6600;51.362;6.686;2023-01-31T08:03:29;101865.50;;;5.79;100.00
13068;BME280;6600;51.362;6.686;2023-01-31T08:06:07;101878.47;;;5.82;100.00
13068;BME280;6600;51.362;6.686;2023-01-31T08:08:37;101868.09;;;5.71;100.00
13068;BME280;6600;51.362;6.686;2023-01-31T08:11:03;101868.81;;;5.81;100.00
13068;BME280;6600;51.362;6.686;2023-01-31T08:13:30;101862.31;;;5.75;100.00
13068;BME280;6600;51.362;6.686;2023-01-31T08:15:55;101861.16;;;5.78;100.00
13068;BME280;6600;51.362;6.686;2023-01-31T08:18:20;101860.75;;;5.90;100.00
13068;BME280;6600;51.362;6.686;2023-01-31T08:20:46;101854.00;;;5.96;100.00
13068;BME280;6600;51.362;6.686;2023-01-31T08:23:11;101854.84;;;5.96;100.00
13068;BME280;6600;51.362;6.686;2023-01-31T08:25:37;101846.69;;;5.98;100.00
13068;BME280;6600;51.362;6.686;2023-01-31T08:28:02;101848.69;;;5.96;100.00
13068;BME280;6600;51.362;6.686;2023-01-31T08:30:28;101846.34;;;6.01;100.00
13068;BME280;6600;51.362;6.686;2023-01-31T08:32:54;101842.34;;;5.97;100.00
13068;BME280;6600;51.362;6.686;2023-01-31T08:35:19;101847.66;;;5.97;100.00
13068;BME280;6600;51.362;6.686;2023-01-31T08:37:44;101855.63;;;5.97;100.00
13068;BME280;6600;51.362;6.686;2023-01-31T08:40:10;101840.72;;;6.04;100.00
13068;BME280;6600;51.362;6.686;2023-01-31T08:42:36;101848.75;;;6.12;100.00
13068;BME280;6600;51.362;6.686;2023-01-31T08:45:01;101840.41;;;6.07;100.00
13068;BME280;6600;51.362;6.686;2023-01-31T08:47:27;101832.31;;;6.25;100.00
13068;BME280;6600;51.362;6.686;2023-01-31T08:49:52;101825.97;;;6.18;100.00
13068;BME280;6600;51.362;6.686;2023-01-31T08:52:17;101826.31;;;6.15;100.00
13068;BME280;6600;51.362;6.686;2023-01-31T08:54:43;101820.31;;;6.13;100.00
13068;BME280;6600;51.362;6.686;2023-01-31T08:57:08;101822.13;;;6.12;100.00
13068;BME280;6600;51.362;6.686;2023-01-31T08:59:33;101817.84;;;6.19;100.00
13068;BME280;6600;51.362;6.686;2023-01-31T09:01:59;101807.44;;;6.00;100.00
13068;BME280;6600;51.362;6.686;2023-01-31T09:04:24;101804.88;;;6.16;100.00
13068;BME280;6600;51.362;6.686;2023-01-31T09:06:49;101796.38;;;6.13;100.00
13068;BME280;6600;51.362;6.686;2023-01-31T09:09:14;101791.22;;;6.19;100.00
13068;BME280;6600;51.362;6.686;2023-01-31T09:11:40;101798.38;;;6.19;100.00
13068;BME280;6600;51.362;6.686;2023-01-31T09:14:05;101794.88;;;6.18;100.00
13068;BME280;6600;51.362;6.686;2023-01-31T09:16:30;101797.53;;;6.10;100.00
13068;BME280;6600;51.362;6.686;2023-01-31T09:18:56;101795.56;;;6.20;100.00
13068;BME280;6600;51.362;6.686;2023-01-31T09:21:22;101787.97;;;6.33;100.00
13068;BME280;6600;51.362;6.686;2023-01-31T09:23:54;101789.63;;;6.34;100.00
13068;BME280;6600;51.362;6.686;2023-01-31T09:26:20;101791.13;;;6.37;100.00
13068;BME280;6600;51.362;6.686;2023-01-31T09:28:45;101786.13;;;6.34;100.00
13068;BME280;6600;51.362;6.686;2023-01-31T09:31:14;101781.97;;;6.39;100.00
13068;BME280;6600;51.362;6.686;2023-01-31T09:33:40;101789.31;;;6.37;100.00
13068;BME280;6600;51.362;6.686;2023-01-31T09:36:10;101792.34;;;6.67;100.00
13068;BME280;6600;51.362;6.686;2023-01-31T09:38:36;101789.72;;;6.83;100.00
13068;BME280;6600;51.362;6.686;2023-01-31T09:41:05;101781.72;;;6.83;100.00
13068;BME280;6600;51.362;6.686;2023-01-31T09:43:39;101781.91;;;6.89;100.00
13068;BME280;6600;51.362;6.686;2023-01-31T09:46:10;101773.94;;;6.89;100.00
13068;BME280;6600;51.362;6.686;2023-01-31T09:48:38;101777.41;;;6.98;100.00
13068;BME280;6600;51.362;6.686;2023-01-31T09:51:05;101781.72;;;6.91;100.00
13068;BME280;6600;51.362;6.686;2023-01-31T09:53:34;101780.22;;;6.96;100.00
13068;BME280;6600;51.362;6.686;2023-01-31T09:56:29;101770.41;;;6.97;100.00
13068;BME280;6600;51.362;6.686;2023-01-31T09:59:20;101774.41;;;7.01;100.00
13068;BME280;6600;51.362;6.686;2023-01-31T10:02:08;101763.75;;;7.09;100.00
13068;BME280;6600;51.362;6.686;2023-01-31T10:07:31;101760.41;;;6.91;100.00
13068;BME280;6600;51.362;6.686;2023-01-31T10:10:11;101748.41;;;6.87;100.00
13068;BME280;6600;51.362;6.686;2023-01-31T10:12:51;101752.78;;;6.96;100.00
13068;BME280;6600;51.362;6.686;2023-01-31T10:15:34;101732.09;;;6.90;100.00
13068;BME280;6600;51.362;6.686;2023-01-31T10:18:05;101729.13;;;6.93;100.00
13068;BME280;6600;51.362;6.686;2023-01-31T10:20:43;101721.81;;;7.03;100.00
13068;BME280;6600;51.362;6.686;2023-01-31T10:26:05;101735.78;;;6.97;100.00
13068;BME280;6600;51.362;6.686;2023-01-31T10:28:51;101729.44;;;6.98;100.00
13068;BME280;6600;51.362;6.686;2023-01-31T10:34:03;101715.44;;;7.12;100.00
13068;BME280;6600;51.362;6.686;2023-01-31T10:36:43;101722.75;;;7.26;100.00
13068;BME280;6600;51.362;6.686;2023-01-31T10:46:57;101707.34;;;7.52;100.00
13068;BME280;6600;51.362;6.686;2023-01-31T10:49:25;101709.03;;;7.53;100.00
13068;BME280;6600;51.362;6.686;2023-01-31T10:56:59;101707.59;;;7.82;100.00
13068;BME280;6600;51.362;6.686;2023-01-31T10:59:35;101698.91;;;7.80;100.00
13068;BME280;6600;51.362;6.686;2023-01-31T11:02:01;101715.63;;;7.66;100.00
13068;BME280;6600;51.362;6.686;2023-01-31T11:04:30;101717.16;;;7.68;100.00
13068;BME280;6600;51.362;6.686;2023-01-31T11:06:57;101703.31;;;7.65;100.00
13068;BME280;6600;51.362;6.686;2023-01-31T11:09:26;101707.31;;;7.69;100.00
13068;BME280;6600;51.362;6.686;2023-01-31T11:11:59;101714.66;;;7.58;100.00
13068;BME280;6600;51.362;6.686;2023-01-31T11:14:25;101702.66;;;7.62;100.00
13068;BME280;6600;51.362;6.686;2023-01-31T11:17:00;101700.53;;;7.58;100.00
13068;BME280;6600;51.362;6.686;2023-01-31T11:21:58;101682.19;;;7.55;100.00
13068;BME280;6600;51.362;6.686;2023-01-31T11:24:27;101679.47;;;7.71;100.00
13068;BME280;6600;51.362;6.686;2023-01-31T11:29:32;101669.63;;;7.72;100.00
13068;BME280;6600;51.362;6.686;2023-01-31T11:31:59;101667.94;;;7.71;100.00
13068;BME280;6600;51.362;6.686;2023-01-31T11:34:27;101667.09;;;7.78;100.00
13068;BME280;6600;51.362;6.686;2023-01-31T11:37:24;101668.22;;;7.84;100.00
13068;BME280;6600;51.362;6.686;2023-01-31T11:39:58;101667.19;;;7.93;100.00
13068;BME280;6600;51.362;6.686;2023-01-31T11:42:24;101660.06;;;7.85;100.00
13068;BME280;6600;51.362;6.686;2023-01-31T11:45:00;101654.00;;;7.91;100.00
13068;BME280;6600;51.362;6.686;2023-01-31T11:47:31;101661.16;;;7.99;100.00
13068;BME280;6600;51.362;6.686;2023-01-31T11:49:59;101657.69;;;7.90;100.00
13068;BME280;6600;51.362;6.686;2023-01-31T11:52:31;101639.66;;;7.92;100.00
13068;BME280;6600;51.362;6.686;2023-01-31T11:55:00;101646.34;;;7.88;100.00
13068;BME280;6600;51.362;6.686;2023-01-31T11:57:31;101644.59;;;8.03;100.00
13068;BME280;6600;51.362;6.686;2023-01-31T11:59:59;101646.16;;;7.90;100.00
13068;BME280;6600;51.362;6.686;2023-01-31T12:02:37;101649.16;;;7.95;100.00
13068;BME280;6600;51.362;6.686;2023-01-31T12:05:08;101642.50;;;7.91;100.00
13068;BME280;6600;51.362;6.686;2023-01-31T12:07:46;101650.47;;;7.99;100.00
13068;BME280;6600;51.362;6.686;2023-01-31T12:12:51;101648.78;;;7.98;100.00
13068;BME280;6600;51.362;6.686;2023-01-31T12:15:16;101652.47;;;7.97;100.00
13068;BME280;6600;51.362;6.686;2023-01-31T12:17:45;101659.47;;;7.98;100.00
13068;BME280;6600;51.362;6.686;2023-01-31T12:20:37;101655.44;;;8.02;100.00
13068;BME280;6600;51.362;6.686;2023-01-31T12:26:07;101651.44;;;8.06;100.00
13068;BME280;6600;51.362;6.686;2023-01-31T12:31:29;101637.84;;;7.93;100.00
13068;BME280;6600;51.362;6.686;2023-01-31T12:34:09;101637.28;;;7.97;100.00
13068;BME280;6600;51.362;6.686;2023-01-31T12:45:37;101617.72;;;8.05;100.00
13068;BME280;6600;51.362;6.686;2023-01-31T12:53:17;101604.69;;;8.10;100.00
13068;BME280;6600;51.362;6.686;2023-01-31T13:01:21;101607.06;;;8.05;100.00
13068;BME280;6600;51.362;6.686;2023-01-31T13:06:45;101610.16;;;8.17;100.00
13068;BME280;6600;51.362;6.686;2023-01-31T13:12:14;101609.44;;;8.23;100.00
13068;BME280;6600;51.362;6.686;2023-01-31T13:14:48;101598.28;;;8.19;100.00
13068;BME280;6600;51.362;6.686;2023-01-31T13:17:17;101607.28;;;8.18;100.00
13068;BME280;6600;51.362;6.686;2023-01-31T13:22:26;101618.31;;;8.15;100.00
13068;BME280;6600;51.362;6.686;2023-01-31T13:27:43;101609.13;;;7.95;100.00
13068;BME280;6600;51.362;6.686;2023-01-31T13:30:31;101605.75;;;8.01;100.00
13068;BME280;6600;51.362;6.686;2023-01-31T13:33:00;101604.44;;;7.97;100.00
13068;BME280;6600;51.362;6.686;2023-01-31T13:35:34;101598.25;;;7.96;100.00
13068;BME280;6600;51.362;6.686;2023-01-31T13:38:07;101596.66;;;7.87;100.00
13068;BME280;6600;51.362;6.686;2023-01-31T13:40:39;101599.81;;;7.91;100.00
13068;BME280;6600;51.362;6.686;2023-01-31T13:43:14;101585.88;;;8.03;100.00
13068;BME280;6600;51.362;6.686;2023-01-31T13:45:51;101593.47;;;7.92;100.00
13068;BME280;6600;51.362;6.686;2023-01-31T13:48:32;101593.41;;;8.00;100.00
13068;BME280;6600;51.362;6.686;2023-01-31T13:51:12;101593.09;;;7.95;100.00
13068;BME280;6600;51.362;6.686;2023-01-31T13:56:38;101588.78;;;7.94;100.00
13068;BME280;6600;51.362;6.686;2023-01-31T13:59:09;101588.78;;;7.94;100.00
13068;BME280;6600;51.362;6.686;2023-01-31T14:01:48;101585.47;;;7.92;100.00
13068;BME280;6600;51.362;6.686;2023-01-31T14:11:56;101574.56;;;7.79;100.00
13068;BME280;6600;51.362;6.686;2023-01-31T14:17:55;101583.56;;;7.78;100.00
13068;BME280;6600;51.362;6.686;2023-01-31T14:20:33;101573.16;;;7.83;100.00
13068;BME280;6600;51.362;6.686;2023-01-31T14:25:49;101575.53;;;7.78;100.00
13068;BME280;6600;51.362;6.686;2023-01-31T14:28:14;101588.88;;;7.78;100.00
13068;BME280;6600;51.362;6.686;2023-01-31T14:30:44;101588.53;;;7.81;100.00
13068;BME280;6600;51.362;6.686;2023-01-31T14:38:53;101582.13;;;7.90;100.00
13068;BME280;6600;51.362;6.686;2023-01-31T14:52:27;101586.47;;;7.91;100.00
13068;BME280;6600;51.362;6.686;2023-01-31T14:57:49;101594.72;;;8.04;100.00
13068;BME280;6600;51.362;6.686;2023-01-31T15:00:19;101596.00;;;8.08;100.00
13068;BME280;6600;51.362;6.686;2023-01-31T15:05:37;101603.50;;;8.12;100.00
13068;BME280;6600;51.362;6.686;2023-01-31T15:13:47;101624.03;;;8.12;100.00
13068;BME280;6600;51.362;6.686;2023-01-31T15:16:26;101627.69;;;8.11;100.00
13068;BME280;6600;51.362;6.686;2023-01-31T15:18:54;101633.69;;;8.13;100.00
13068;BME280;6600;51.362;6.686;2023-01-31T15:21:31;101632.88;;;8.12;100.00
13068;BME280;6600;51.362;6.686;2023-01-31T15:23:58;101635.53;;;8.12;100.00
13068;BME280;6600;51.362;6.686;2023-01-31T15:26:27;101632.06;;;8.04;100.00
13068;BME280;6600;51.362;6.686;2023-01-31T15:28:55;101629.34;;;8.12;100.00
13068;BME280;6600;51.362;6.686;2023-01-31T15:31:28;101627.34;;;8.14;100.00
13068;BME280;6600;51.362;6.686;2023-01-31T15:33:58;101629.41;;;8.04;100.00
13068;BME280;6600;51.362;6.686;2023-01-31T15:36:41;101630.69;;;8.16;100.00